Time;durP1;ratioP1;P1;durP2;ratioP2;P2;SDS_P1;SDS_P2;PMS_P1;PMS_P2;Temp;Humidity;BMP_temperature;BMP_pressure;BME280_temperature;BME280_humidity;BME280_pressure;Samples;Min_cycle;Max_cycle;Signal;HPM_P1;HPM_P2
2024/01/16 00:00:16;;;;;;;1.80;1.70;;;2.80;99.90;;;;;;4972946;28;20100;-90
2024/01/16 00:02:45;;;;;;;1.70;1.60;;;2.70;99.90;;;;;;4975020;28;20050;-90
2024/01/16 00:05:12;;;;;;;1.73;1.63;;;3.00;99.90;;;;;;4988622;28;20446;-90
2024/01/16 00:07:39;;;;;;;1.90;1.80;;;3.20;99.90;;;;;;4974289;28;20053;-92
2024/01/16 00:10:08;;;;;;;1.88;1.77;;;2.60;99.90;;;;;;4976523;28;20046;-90
2024/01/16 00:12:33;;;;;;;2.08;1.98;;;2.90;99.90;;;;;;4991554;28;20096;-91
2024/01/16 00:14:59;;;;;;;1.98;1.88;;;2.70;99.90;;;;;;4977470;28;20332;-91
2024/01/16 00:17:25;;;;;;;1.92;1.83;;;2.70;99.90;;;;;;4979129;28;20060;-90
2024/01/16 00:19:50;;;;;;;2.10;2.00;;;3.20;99.90;;;;;;4992987;28;20080;-90
2024/01/16 00:22:16;;;;;;;2.15;2.05;;;3.10;99.90;;;;;;4978797;28;20046;-92
2024/01/16 00:24:42;;;;;;;2.05;1.95;;;3.20;99.90;;;;;;4977515;28;20068;-90
2024/01/16 00:27:07;;;;;;;4.20;3.97;;;3.10;99.90;;;;;;4977408;28;20099;-92
2024/01/16 00:29:33;;;;;;;2.00;1.90;;;2.80;99.90;;;;;;4979159;28;20108;-91
2024/01/16 00:31:59;;;;;;;2.08;1.98;;;2.90;99.90;;;;;;4983697;28;20282;-90
2024/01/16 00:34:24;;;;;;;2.17;2.08;;;2.90;99.90;;;;;;4996883;28;20202;-91
2024/01/16 00:36:50;;;;;;;2.22;2.13;;;3.20;99.90;;;;;;4975192;28;20838;-92
2024/01/16 00:39:16;;;;;;;2.10;2.00;;;3.20;99.90;;;;;;4977606;28;20045;-91
2024/01/16 00:41:42;;;;;;;2.25;2.15;;;3.10;99.90;;;;;;4978165;28;20057;-92
2024/01/16 00:44:07;;;;;;;2.05;1.95;;;2.80;99.90;;;;;;4978598;28;20411;-90
2024/01/16 00:46:36;;;;;;;2.20;2.10;;;3.30;99.90;;;;;;4979030;28;20045;-92
2024/01/16 00:49:01;;;;;;;2.20;2.10;;;2.90;99.90;;;;;;4979397;28;20124;-92
2024/01/16 00:51:27;;;;;;;2.17;2.08;;;3.00;99.90;;;;;;4975086;28;20146;-93
2024/01/16 00:53:53;;;;;;;2.13;2.03;;;2.90;99.90;;;;;;4977363;28;20042;-93
2024/01/16 00:56:19;;;;;;;2.30;2.20;;;3.20;99.90;;;;;;4990946;28;20404;-92
2024/01/16 00:58:44;;;;;;;2.20;2.10;;;3.10;99.90;;;;;;4977858;28;20060;-91
2024/01/16 01:01:10;;;;;;;2.20;2.10;;;3.20;99.90;;;;;;4976023;28;20050;-90
2024/01/16 01:03:36;;;;;;;2.20;2.10;;;2.90;99.90;;;;;;4994482;28;20078;-91
2024/01/16 01:06:02;;;;;;;2.22;2.13;;;2.90;99.90;;;;;;4974089;28;20046;-91
2024/01/16 01:08:28;;;;;;;2.13;2.03;;;3.10;99.90;;;;;;4978236;28;20046;-91
2024/01/16 01:10:54;;;;;;;2.13;2.03;;;3.40;99.90;;;;;;4993626;28;20618;-91
2024/01/16 01:13:19;;;;;;;2.17;2.08;;;3.40;99.90;;;;;;4978298;28;20061;-92
2024/01/16 01:15:45;;;;;;;2.30;2.20;;;2.90;99.90;;;;;;4974618;28;20045;-90
2024/01/16 01:18:11;;;;;;;2.25;2.15;;;3.40;99.90;;;;;;4979390;28;20046;-92
2024/01/16 01:20:37;;;;;;;2.20;2.10;;;2.90;99.90;;;;;;4993055;28;20034;-91
2024/01/16 01:23:03;;;;;;;2.15;2.05;;;3.40;99.90;;;;;;4980923;28;20045;-93
2024/01/16 01:25:28;;;;;;;2.10;2.00;;;3.00;99.90;;;;;;4974768;28;20084;-92
2024/01/16 01:27:54;;;;;;;2.08;1.98;;;3.50;99.90;;;;;;4978992;28;20038;-90
2024/01/16 01:30:20;;;;;;;2.13;2.03;;;3.60;99.90;;;;;;4981549;28;20389;-92
2024/01/16 01:32:45;;;;;;;2.20;2.10;;;3.30;99.90;;;;;;4995613;28;20042;-92
2024/01/16 01:35:11;;;;;;;2.13;2.03;;;3.00;99.90;;;;;;4978079;28;20049;-93
2024/01/16 01:37:38;;;;;;;2.22;2.13;;;3.50;99.90;;;;;;4980898;28;20447;-91
2024/01/16 01:40:04;;;;;;;2.15;2.05;;;3.50;99.90;;;;;;4981545;28;20042;-93
2024/01/16 01:42:30;;;;;;;2.20;2.10;;;3.10;99.90;;;;;;4994167;28;20205;-93
2024/01/16 01:44:56;;;;;;;2.00;1.90;;;3.00;99.90;;;;;;4977221;28;20045;-92
2024/01/16 01:47:21;;;;;;;2.10;2.00;;;2.90;99.90;;;;;;4978614;28;20134;-92
2024/01/16 01:49:47;;;;;;;1.92;1.83;;;3.00;99.90;;;;;;4978565;28;20046;-93
2024/01/16 01:52:17;;;;;;;2.00;1.90;;;3.10;99.90;;;;;;4978152;28;20034;-92
2024/01/16 01:54:44;;;;;;;1.90;1.80;;;2.90;99.90;;;;;;4982496;28;20042;-91
2024/01/16 01:57:10;;;;;;;2.00;1.90;;;3.10;99.90;;;;;;4976164;28;20064;-92
2024/01/16 01:59:36;;;;;;;1.95;1.85;;;3.00;99.90;;;;;;4980853;28;21574;-92
2024/01/16 02:02:04;;;;;;;2.10;2.00;;;2.80;99.90;;;;;;4976024;28;20172;-95
2024/01/16 02:04:40;;;;;;;2.10;2.00;;;3.00;99.90;;;;;;4979149;28;20050;-94
2024/01/16 02:07:07;;;;;;;2.00;1.90;;;2.80;99.90;;;;;;4978075;28;20041;-93
2024/01/16 02:09:33;;;;;;;2.00;1.90;;;2.70;99.90;;;;;;4978722;28;20046;-93
2024/01/16 02:12:39;;;;;;;2.08;1.98;;;3.30;99.90;;;;;;4977599;28;20126;-94
2024/01/16 02:15:13;;;;;;;2.10;2.00;;;3.30;99.90;;;;;;4974711;28;20621;-91
2024/01/16 02:17:38;;;;;;;2.00;1.90;;;3.00;99.90;;;;;;4977050;28;20038;-91
2024/01/16 02:20:08;;;;;;;2.00;1.90;;;3.30;99.90;;;;;;4978432;28;20061;-92
2024/01/16 02:22:35;;;;;;;2.03;1.92;;;3.50;99.90;;;;;;4974907;28;20038;-92
2024/01/16 02:25:01;;;;;;;2.08;1.98;;;3.60;99.90;;;;;;4977123;28;20050;-93
2024/01/16 02:27:30;;;;;;;2.03;1.92;;;3.60;99.90;;;;;;4993294;28;20068;-93
2024/01/16 02:29:55;;;;;;;2.17;2.08;;;3.20;99.90;;;;;;4980280;28;20057;-92
2024/01/16 02:32:21;;;;;;;2.03;1.92;;;3.00;99.90;;;;;;4978876;28;20054;-93
2024/01/16 02:34:48;;;;;;;2.03;1.92;;;3.40;99.90;;;;;;4975599;28;21337;-93
2024/01/16 02:37:13;;;;;;;2.05;1.95;;;3.00;99.90;;;;;;4978137;28;20124;-94
2024/01/16 02:39:39;;;;;;;1.98;1.88;;;2.70;99.90;;;;;;4978285;28;20112;-93
2024/01/16 02:42:06;;;;;;;1.98;1.88;;;2.70;99.90;;;;;;4979055;28;20128;-93
2024/01/16 02:44:32;;;;;;;1.90;1.80;;;2.90;99.90;;;;;;4978450;28;20050;-94
2024/01/16 02:46:58;;;;;;;2.05;1.95;;;3.20;99.90;;;;;;4978887;28;20044;-93
2024/01/16 02:49:25;;;;;;;1.92;1.83;;;3.20;99.90;;;;;;4980419;28;20061;-93
2024/01/16 02:51:51;;;;;;;2.00;1.90;;;3.10;99.90;;;;;;4980198;28;20503;-93
2024/01/16 02:54:20;;;;;;;2.00;1.90;;;3.10;99.90;;;;;;4975559;28;20076;-94
2024/01/16 02:56:49;;;;;;;2.03;1.92;;;3.10;99.90;;;;;;4977864;28;20049;-93
2024/01/16 02:59:15;;;;;;;2.08;1.98;;;3.30;99.90;;;;;;4990178;28;20107;-92
2024/01/16 03:01:41;;;;;;;1.95;1.85;;;2.80;99.90;;;;;;4980169;28;20041;-92
2024/01/16 03:04:07;;;;;;;2.00;1.90;;;2.80;99.90;;;;;;4976188;28;20495;-92
2024/01/16 03:06:33;;;;;;;1.90;1.80;;;2.70;99.90;;;;;;4993815;28;20044;-93
2024/01/16 03:08:59;;;;;;;2.00;1.90;;;3.40;99.90;;;;;;4979339;28;20523;-92
2024/01/16 03:11:24;;;;;;;2.00;1.90;;;2.90;99.90;;;;;;4978539;28;20058;-91
2024/01/16 03:13:52;;;;;;;1.95;1.85;;;3.30;99.90;;;;;;4978601;28;20049;-92
2024/01/16 03:16:18;;;;;;;1.92;1.83;;;3.00;99.90;;;;;;4978128;28;20034;-93
2024/01/16 03:18:44;;;;;;;2.10;2.00;;;3.40;99.90;;;;;;4978231;28;20046;-93
2024/01/16 03:21:13;;;;;;;1.90;1.80;;;2.90;99.90;;;;;;4976110;28;20068;-93
2024/01/16 03:23:39;;;;;;;1.95;1.85;;;3.20;99.90;;;;;;4996500;28;20107;-94
2024/01/16 03:26:14;;;;;;;1.90;1.80;;;2.90;99.90;;;;;;4980046;28;20643;-93
2024/01/16 03:28:41;;;;;;;1.88;1.77;;;3.30;99.90;;;;;;4975438;28;20050;-93
2024/01/16 03:31:07;;;;;;;1.80;1.70;;;3.00;99.90;;;;;;4977355;28;20519;-92
2024/01/16 03:33:34;;;;;;;1.85;1.75;;;3.50;99.90;;;;;;4980413;28;20092;-92
2024/01/16 03:36:00;;;;;;;1.85;1.75;;;3.50;99.90;;;;;;4977688;28;20049;-92
2024/01/16 03:38:26;;;;;;;1.83;1.73;;;3.40;99.90;;;;;;4976329;28;20041;-93
2024/01/16 03:40:52;;;;;;;2.00;1.90;;;3.00;99.90;;;;;;4992893;28;20053;-92
2024/01/16 03:43:18;;;;;;;2.00;1.90;;;3.00;99.90;;;;;;4974767;28;20471;-92
2024/01/16 03:45:44;;;;;;;2.00;1.90;;;3.20;99.90;;;;;;4975983;28;20395;-92
2024/01/16 03:48:10;;;;;;;1.80;1.70;;;3.00;99.90;;;;;;4973425;28;20042;-94
2024/01/16 03:50:36;;;;;;;1.83;1.73;;;3.20;99.90;;;;;;4994889;28;20062;-94
2024/01/16 03:53:03;;;;;;;1.88;1.77;;;2.90;99.90;;;;;;4980122;28;20042;-92
2024/01/16 03:55:31;;;;;;;1.80;1.70;;;3.20;99.90;;;;;;4980128;28;20054;-93
2024/01/16 03:57:56;;;;;;;1.90;1.80;;;3.00;99.90;;;;;;4978485;28;20049;-91
2024/01/16 04:00:24;;;;;;;1.90;1.80;;;3.00;99.90;;;;;;4995658;28;20042;-91
2024/01/16 04:02:49;;;;;;;1.80;1.70;;;3.30;99.90;;;;;;4982910;28;20041;-93
2024/01/16 04:05:15;;;;;;;1.90;1.80;;;2.90;99.90;;;;;;4979087;28;20137;-91
2024/01/16 04:07:41;;;;;;;1.90;1.80;;;3.10;99.90;;;;;;4995421;28;20387;-91
2024/01/16 04:10:07;;;;;;;1.80;1.70;;;2.90;99.90;;;;;;4965305;28;20807;-92
2024/01/16 04:12:33;;;;;;;1.90;1.80;;;2.80;99.90;;;;;;4994105;28;20042;-92
2024/01/16 04:14:59;;;;;;;1.90;1.80;;;3.30;99.90;;;;;;4979430;28;20443;-92
2024/01/16 04:17:25;;;;;;;1.77;1.67;;;2.80;99.90;;;;;;4980233;28;20054;-93
2024/01/16 04:19:50;;;;;;;1.90;1.80;;;3.00;99.90;;;;;;4979634;28;20159;-92
2024/01/16 04:22:16;;;;;;;1.90;1.80;;;3.30;99.90;;;;;;4995200;28;20041;-92
2024/01/16 04:24:42;;;;;;;1.88;1.77;;;2.90;99.90;;;;;;4978047;28;20046;-92
2024/01/16 04:27:07;;;;;;;1.95;1.85;;;3.30;99.90;;;;;;4980426;28;20057;-92
2024/01/16 04:29:36;;;;;;;1.90;1.80;;;3.20;99.90;;;;;;4979797;28;20054;-92
2024/01/16 04:32:02;;;;;;;2.00;1.90;;;3.10;99.90;;;;;;4980692;28;20400;-92
2024/01/16 04:34:27;;;;;;;1.90;1.80;;;3.00;99.90;;;;;;4981798;28;20052;-93
2024/01/16 04:36:59;;;;;;;1.90;1.80;;;3.30;99.90;;;;;;4979579;28;20046;-93
2024/01/16 04:39:24;;;;;;;1.90;1.80;;;2.90;99.90;;;;;;4995369;28;20091;-90
2024/01/16 04:41:50;;;;;;;1.90;1.80;;;3.40;99.90;;;;;;4979024;28;20132;-92
2024/01/16 04:44:16;;;;;;;1.95;1.85;;;2.90;99.90;;;;;;4977503;28;20056;-91
2024/01/16 04:46:41;;;;;;;1.90;1.80;;;3.40;99.90;;;;;;4977074;28;20613;-93
2024/01/16 04:49:07;;;;;;;2.00;1.90;;;3.40;99.90;;;;;;4979667;28;20041;-94
2024/01/16 04:51:33;;;;;;;1.90;1.80;;;3.40;99.90;;;;;;4998715;28;20491;-92
2024/01/16 04:54:02;;;;;;;1.90;1.80;;;3.10;99.90;;;;;;4980528;28;20049;-91
2024/01/16 04:56:28;;;;;;;2.00;1.90;;;3.50;99.90;;;;;;4981774;28;20038;-91
2024/01/16 04:58:54;;;;;;;1.92;1.83;;;3.10;99.90;;;;;;4982396;28;20068;-93
2024/01/16 05:01:24;;;;;;;1.90;1.80;;;3.20;99.90;;;;;;4974889;28;20112;-93
2024/01/16 05:03:50;;;;;;;1.90;1.80;;;3.20;99.90;;;;;;4980308;28;20518;-91
2024/01/16 05:06:16;;;;;;;1.95;1.85;;;3.00;99.90;;;;;;4978088;28;20065;-91
2024/01/16 05:08:43;;;;;;;1.88;1.77;;;3.40;99.90;;;;;;4995863;28;20096;-91
2024/01/16 05:11:09;;;;;;;2.00;1.90;;;3.00;99.90;;;;;;4977301;28;20057;-89
2024/01/16 05:13:37;;;;;;;1.92;1.83;;;3.50;99.90;;;;;;4995456;28;20050;-91
2024/01/16 05:16:03;;;;;;;1.92;1.83;;;3.10;99.90;;;;;;4993138;28;20077;-93
2024/01/16 05:18:29;;;;;;;2.05;1.95;;;3.40;99.90;;;;;;4978790;28;20057;-94
2024/01/16 05:21:03;;;;;;;2.03;1.92;;;3.50;99.90;;;;;;4979189;28;20289;-92
2024/01/16 05:23:29;;;;;;;2.00;1.90;;;3.20;99.90;;;;;;4979101;28;20053;-92
2024/01/16 05:25:55;;;;;;;2.00;1.90;;;3.40;99.90;;;;;;4978470;28;20046;-91
2024/01/16 05:28:24;;;;;;;2.00;1.90;;;3.10;99.90;;;;;;4976602;28;20042;-95
2024/01/16 05:30:50;;;;;;;1.90;1.80;;;3.20;99.90;;;;;;4979147;28;20050;-89
2024/01/16 05:33:16;;;;;;;1.98;1.88;;;3.10;99.90;;;;;;4976428;28;20054;-93
2024/01/16 05:35:42;;;;;;;1.88;1.77;;;3.30;99.90;;;;;;4974421;28;20056;-92
2024/01/16 05:38:12;;;;;;;1.92;1.83;;;3.00;99.90;;;;;;4978321;28;20038;-92
2024/01/16 05:40:41;;;;;;;1.90;1.80;;;3.20;99.90;;;;;;4995170;28;20046;-93
2024/01/16 05:43:07;;;;;;;1.92;1.83;;;3.30;99.90;;;;;;4993326;28;20495;-91
2024/01/16 05:45:33;;;;;;;1.95;1.85;;;3.00;99.90;;;;;;4978097;28;20197;-92
2024/01/16 05:47:58;;;;;;;2.00;1.90;;;2.90;99.90;;;;;;4978683;28;20046;-90
2024/01/16 05:50:24;;;;;;;1.98;1.88;;;3.30;99.90;;;;;;4976389;28;20529;-93
2024/01/16 05:52:50;;;;;;;4.28;4.05;;;3.10;99.90;;;;;;4991259;28;20105;-91
2024/01/16 05:55:16;;;;;;;2.00;1.90;;;2.90;99.90;;;;;;4976364;28;20621;-93
2024/01/16 05:57:43;;;;;;;2.10;2.00;;;2.90;99.90;;;;;;4977936;28;20038;-92
2024/01/16 06:00:10;;;;;;;1.92;1.83;;;2.90;99.90;;;;;;4976610;28;20085;-92
2024/01/16 06:02:35;;;;;;;1.98;1.88;;;3.20;99.90;;;;;;4977565;28;20046;-91
2024/01/16 06:05:02;;;;;;;1.90;1.80;;;3.30;99.90;;;;;;4976663;28;20053;-91
2024/01/16 06:07:28;;;;;;;2.08;1.98;;;2.90;99.90;;;;;;4991359;28;20038;-92
2024/01/16 06:09:54;;;;;;;2.00;1.90;;;2.70;99.90;;;;;;4978967;28;20056;-90
2024/01/16 06:12:20;;;;;;;1.95;1.85;;;3.30;99.90;;;;;;4975294;28;20046;-92
2024/01/16 06:14:49;;;;;;;1.98;1.88;;;3.40;99.90;;;;;;4963548;28;20051;-94
2024/01/16 06:17:14;;;;;;;1.90;1.80;;;3.40;99.90;;;;;;4993262;28;20360;-91
2024/01/16 06:19:42;;;;;;;2.20;2.10;;;3.50;99.90;;;;;;4981077;28;20053;-92
2024/01/16 06:22:13;;;;;;;1.90;1.80;;;3.30;99.90;;;;;;4979221;28;20526;-94
2024/01/16 06:24:39;;;;;;;1.92;1.83;;;3.40;99.90;;;;;;4979533;28;20089;-92
2024/01/16 06:27:06;;;;;;;1.92;1.83;;;3.40;99.90;;;;;;4978574;28;20135;-92
2024/01/16 06:29:32;;;;;;;1.90;1.80;;;3.00;99.90;;;;;;4977310;28;20054;-92
2024/01/16 06:31:58;;;;;;;2.00;1.90;;;3.40;99.90;;;;;;4975783;28;20042;-90
2024/01/16 06:34:24;;;;;;;2.80;2.10;;;3.30;99.90;;;;;;4992038;28;20131;-92
2024/01/16 06:36:53;;;;;;;1.95;1.85;;;3.60;99.90;;;;;;4977583;28;20102;-93
2024/01/16 06:39:24;;;;;;;1.92;1.83;;;3.60;99.90;;;;;;4979639;28;20561;-94
2024/01/16 06:41:50;;;;;;;1.90;1.80;;;3.10;99.90;;;;;;4974674;28;20167;-92
2024/01/16 06:44:19;;;;;;;1.95;1.85;;;3.50;99.90;;;;;;4978435;28;20636;-92
2024/01/16 06:46:53;;;;;;;1.90;1.80;;;3.10;99.90;;;;;;4978690;28;20502;-93
2024/01/16 06:49:21;;;;;;;1.90;1.80;;;3.40;99.90;;;;;;4977226;28;20113;-93
2024/01/16 06:51:47;;;;;;;1.90;1.80;;;3.50;99.90;;;;;;4976585;28;20121;-92
2024/01/16 06:54:12;;;;;;;2.00;1.90;;;2.90;99.90;;;;;;4975383;28;20100;-93
2024/01/16 06:56:38;;;;;;;2.00;1.90;;;3.20;99.90;;;;;;4977194;28;20088;-94
2024/01/16 06:59:07;;;;;;;2.00;1.90;;;3.30;99.90;;;;;;5012275;28;20395;-93
2024/01/16 07:01:44;;;;;;;2.03;1.92;;;3.40;99.90;;;;;;4978562;28;20120;-94
2024/01/16 07:04:19;;;;;;;1.90;1.80;;;3.00;99.90;;;;;;4996455;28;20045;-94
2024/01/16 07:06:51;;;;;;;2.00;1.90;;;3.60;99.90;;;;;;4976872;28;20107;-91
2024/01/16 07:09:20;;;;;;;1.95;1.85;;;3.20;99.90;;;;;;4993654;28;20046;-92
2024/01/16 07:11:47;;;;;;;1.90;1.80;;;3.50;99.90;;;;;;4974711;28;20121;-94
2024/01/16 07:14:13;;;;;;;1.90;1.80;;;3.30;99.90;;;;;;4974341;28;20046;-90
2024/01/16 07:16:50;;;;;;;2.00;1.90;;;3.00;99.90;;;;;;4974172;28;20050;-92
2024/01/16 07:19:18;;;;;;;2.00;1.90;;;3.60;99.90;;;;;;4974318;28;20042;-93
2024/01/16 07:22:14;;;;;;;1.95;1.85;;;3.00;99.90;;;;;;4972293;28;20057;-92
2024/01/16 07:24:51;;;;;;;1.95;1.85;;;3.30;99.90;;;;;;4994917;28;20172;-95
2024/01/16 07:27:17;;;;;;;2.00;1.90;;;3.10;99.90;;;;;;4961589;28;20041;-93
2024/01/16 07:29:45;;;;;;;1.98;1.88;;;3.20;99.90;;;;;;4975581;28;20048;-94
2024/01/16 07:32:11;;;;;;;2.00;1.90;;;3.20;99.90;;;;;;4975551;28;20046;-93
2024/01/16 07:34:44;;;;;;;1.85;1.75;;;3.50;99.90;;;;;;4980211;28;20081;-92
2024/01/16 07:37:13;;;;;;;2.05;1.95;;;3.20;99.90;;;;;;4976595;28;20042;-94
2024/01/16 07:39:44;;;;;;;2.00;1.90;;;3.30;99.90;;;;;;4977259;28;20049;-95
2024/01/16 07:42:10;;;;;;;1.98;1.88;;;3.10;99.90;;;;;;4993976;28;20049;-93
2024/01/16 07:44:36;;;;;;;1.92;1.83;;;3.10;99.90;;;;;;4977622;28;20053;-93
2024/01/16 07:47:03;;;;;;;1.90;1.80;;;3.20;99.90;;;;;;4977342;28;20048;-92
2024/01/16 07:49:32;;;;;;;2.13;2.03;;;3.60;99.90;;;;;;4977110;28;20050;-93
2024/01/16 07:52:09;;;;;;;2.00;1.90;;;3.30;99.90;;;;;;4979375;28;20069;-95
2024/01/16 07:54:38;;;;;;;1.98;1.88;;;3.30;99.90;;;;;;4978164;28;20050;-94
2024/01/16 07:57:13;;;;;;;1.80;1.70;;;3.00;99.90;;;;;;4976658;28;20050;-95
2024/01/16 07:59:38;;;;;;;2.00;1.90;;;3.20;99.90;;;;;;4990590;28;20057;-96
2024/01/16 08:02:25;;;;;;;1.90;1.80;;;3.10;99.90;;;;;;4978887;28;20057;-95
2024/01/16 08:08:21;;;;;;;1.90;1.80;;;3.40;99.90;;;;;;4915926;28;20049;-94
2024/01/16 08:11:00;;;;;;;1.83;1.73;;;3.70;99.90;;;;;;4979671;28;20109;-95
2024/01/16 08:13:46;;;;;;;2.00;1.90;;;3.70;99.90;;;;;;4979498;28;20049;-94
2024/01/16 08:16:26;;;;;;;1.83;1.73;;;3.70;99.90;;;;;;4994896;28;20045;-95
2024/01/16 08:19:22;;;;;;;1.90;1.80;;;3.60;99.90;;;;;;5004024;28;20049;-94
2024/01/16 08:21:51;;;;;;;1.90;1.80;;;3.10;99.90;;;;;;4995830;28;20034;-93
2024/01/16 08:24:17;;;;;;;2.00;1.90;;;3.40;99.90;;;;;;4979543;28;20083;-93
2024/01/16 08:26:48;;;;;;;1.90;1.80;;;3.20;99.90;;;;;;4977489;28;20049;-95
2024/01/16 08:29:16;;;;;;;2.00;1.90;;;3.60;99.90;;;;;;4979142;28;20367;-94
2024/01/16 08:32:04;;;;;;;2.00;1.90;;;3.20;99.90;;;;;;4978074;28;20054;-95
2024/01/16 08:34:32;;;;;;;1.90;1.80;;;3.30;99.90;;;;;;4980988;28;20128;-94
2024/01/16 08:37:01;;;;;;;2.00;1.90;;;3.20;99.90;;;;;;4984620;28;20045;-94
2024/01/16 08:39:27;;;;;;;2.00;1.90;;;3.60;99.90;;;;;;4996756;28;20074;-93
2024/01/16 08:41:57;;;;;;;1.85;1.75;;;4.00;99.90;;;;;;4981522;28;20224;-93
2024/01/16 08:44:29;;;;;;;1.90;1.80;;;3.40;99.90;;;;;;4985736;28;20610;-94
2024/01/16 08:47:08;;;;;;;;;;;;;;;;;;;;;
2024/01/16 09:12:52;;;;;;;1.67;1.58;;;4.20;99.90;;;;;;4850890;29;20053;-95
2024/01/16 09:26:37;;;;;;;1.70;1.60;;;4.30;99.90;;;;;;4991078;28;20068;-96
2024/01/16 09:44:27;;;;;;;1.60;1.50;;;4.20;99.90;;;;;;4945361;28;20123;-94
2024/01/16 09:47:15;;;;;;;1.65;1.55;;;4.20;99.90;;;;;;4920445;28;20043;-93
2024/01/16 09:54:16;;;;;;;1.65;1.55;;;4.30;99.90;;;;;;4946019;28;20549;-94
2024/01/16 10:05:23;;;;;;;;;;;;;;;;;;;;;
2024/01/16 10:08:13;;;;;;;1.50;1.40;;;4.60;99.90;;;;;;4846513;29;20054;-95
2024/01/16 10:10:48;;;;;;;1.60;1.50;;;4.60;99.90;;;;;;4827734;29;20061;-94
2024/01/16 10:17:17;;;;;;;1.60;1.50;;;4.50;99.90;;;;;;4877962;29;20104;-94
2024/01/16 10:19:58;;;;;;;1.60;1.50;;;4.40;99.90;;;;;;4897632;28;20057;-92
2024/01/16 10:22:31;;;;;;;1.55;1.45;;;4.60;99.90;;;;;;4920533;28;20082;-94
2024/01/16 10:25:07;;;;;;;;;;;4.50;99.90;;;;;;4927653;28;20141;-94
2024/01/16 10:30:47;;;;;;;1.60;1.50;;;4.70;99.90;;;;;;4981525;28;20054;-93
2024/01/16 10:33:16;;;;;;;1.55;1.45;;;4.40;99.90;;;;;;4980457;28;20180;-93
2024/01/16 10:39:47;;;;;;;1.60;1.50;;;4.70;99.90;;;;;;5008178;28;20180;-93
2024/01/16 10:42:15;;;;;;;1.60;1.50;;;4.70;99.90;;;;;;4979853;28;20492;-94
2024/01/16 10:44:54;;;;;;;1.60;1.50;;;4.80;99.90;;;;;;4976094;28;20062;-94
2024/01/16 10:47:22;;;;;;;1.70;1.60;;;4.50;99.90;;;;;;4977936;28;20789;-93
2024/01/16 10:49:58;;;;;;;1.80;1.70;;;4.60;99.90;;;;;;4981403;28;20483;-95
2024/01/16 10:52:28;;;;;;;1.73;1.63;;;4.90;99.90;;;;;;4976941;28;20046;-93
2024/01/16 10:54:59;;;;;;;1.70;1.60;;;4.60;99.90;;;;;;4977125;28;20140;-94
2024/01/16 10:57:26;;;;;;;1.88;1.77;;;4.90;99.90;;;;;;4976752;28;20053;-94
2024/01/16 11:00:04;;;;;;;1.70;1.60;;;5.00;99.90;;;;;;4974850;28;20157;-94
2024/01/16 11:02:59;;;;;;;1.77;1.67;;;4.80;99.90;;;;;;4993926;28;20081;-92
2024/01/16 11:05:35;;;;;;;1.80;1.70;;;4.90;99.90;;;;;;4970617;28;20058;-94
2024/01/16 11:08:05;;;;;;;1.70;1.60;;;5.20;99.90;;;;;;4983780;28;20598;-93
2024/01/16 11:10:35;;;;;;;1.60;1.50;;;5.10;99.90;;;;;;4976931;28;20042;-93
2024/01/16 11:13:02;;;;;;;1.60;1.50;;;5.20;99.90;;;;;;4994069;28;20045;-91
2024/01/16 11:15:29;;;;;;;1.67;1.58;;;5.20;99.90;;;;;;4978334;28;20108;-93
2024/01/16 11:17:59;;;;;;;1.65;1.55;;;5.10;99.90;;;;;;4993189;28;20070;-93
2024/01/16 11:20:26;;;;;;;1.60;1.50;;;5.20;99.90;;;;;;4979405;28;20657;-93
2024/01/16 11:22:59;;;;;;;1.70;1.60;;;5.30;99.90;;;;;;4992253;28;20050;-93
2024/01/16 11:25:35;;;;;;;1.70;1.60;;;5.40;99.90;;;;;;4977207;28;20053;-93
2024/01/16 11:28:13;;;;;;;1.63;1.52;;;5.30;99.90;;;;;;4981569;28;20859;-92
2024/01/16 11:30:39;;;;;;;1.67;1.58;;;5.30;99.90;;;;;;4988769;28;20389;-93
2024/01/16 11:33:05;;;;;;;1.67;1.58;;;5.40;99.90;;;;;;4997146;28;20049;-91
2024/01/16 11:35:33;;;;;;;1.70;1.60;;;5.30;99.90;;;;;;4975090;28;20109;-92
2024/01/16 11:38:16;;;;;;;1.70;1.60;;;5.20;99.90;;;;;;4977532;28;20041;-92
2024/01/16 11:40:42;;;;;;;1.67;1.58;;;5.30;99.90;;;;;;4991895;28;20399;-92
2024/01/16 11:43:33;;;;;;;1.70;1.60;;;5.20;99.90;;;;;;4977432;28;20046;-92
2024/01/16 11:46:06;;;;;;;1.63;1.52;;;5.30;99.90;;;;;;4971690;28;20068;-91
2024/01/16 11:48:31;;;;;;;1.63;1.52;;;5.20;99.90;;;;;;4979324;28;20069;-92
2024/01/16 11:50:57;;;;;;;1.70;1.60;;;5.20;99.90;;;;;;4977492;28;20139;-92
2024/01/16 11:53:33;;;;;;;1.75;1.65;;;5.20;99.90;;;;;;4981475;28;20045;-92
2024/01/16 11:56:19;;;;;;;1.63;1.52;;;5.20;99.90;;;;;;4989593;28;20049;-92
2024/01/16 11:59:04;;;;;;;1.60;1.50;;;5.30;99.90;;;;;;4978854;28;20053;-93
2024/01/16 12:01:32;;;;;;;1.60;1.50;;;5.20;99.90;;;;;;4993713;28;20065;-92
2024/01/16 12:04:07;;;;;;;1.60;1.50;;;5.30;99.90;;;;;;4976672;28;20049;-93
2024/01/16 12:06:37;;;;;;;1.63;1.52;;;5.20;99.90;;;;;;4991260;28;20105;-92
2024/01/16 12:09:14;;;;;;;1.60;1.50;;;5.00;99.90;;;;;;4981188;28;20053;-91
2024/01/16 12:11:40;;;;;;;1.63;1.52;;;5.00;99.90;;;;;;4999239;28;20061;-92
2024/01/16 12:14:06;;;;;;;1.60;1.50;;;5.10;99.90;;;;;;4979098;28;20057;-92
2024/01/16 12:16:32;;;;;;;1.60;1.50;;;4.90;99.90;;;;;;4998445;28;20042;-93
2024/01/16 12:19:08;;;;;;;1.60;1.50;;;5.20;99.90;;;;;;4980104;28;20048;-93
2024/01/16 12:21:43;;;;;;;1.60;1.50;;;5.00;99.90;;;;;;4981214;28;20440;-90
2024/01/16 12:24:10;;;;;;;1.65;1.55;;;5.20;99.90;;;;;;4980539;28;20056;-89
2024/01/16 12:26:36;;;;;;;1.60;1.50;;;5.10;99.90;;;;;;4981490;28;20064;-90
2024/01/16 12:29:02;;;;;;;1.70;1.60;;;5.10;99.90;;;;;;4981593;28;20053;-91
2024/01/16 12:31:29;;;;;;;1.73;1.63;;;5.20;99.90;;;;;;4982830;28;20049;-93
2024/01/16 12:34:15;;;;;;;1.70;1.60;;;5.20;99.90;;;;;;4981894;28;20046;-93
2024/01/16 12:36:40;;;;;;;1.70;1.60;;;5.10;99.90;;;;;;4997908;28;20053;-91
2024/01/16 12:39:12;;;;;;;1.73;1.63;;;5.10;99.90;;;;;;4998111;28;20125;-91
2024/01/16 12:41:42;;;;;;;1.60;1.50;;;5.20;99.90;;;;;;4998460;28;20084;-90
2024/01/16 12:44:08;;;;;;;1.75;1.65;;;5.10;99.90;;;;;;4981631;28;20092;-91
2024/01/16 12:46:34;;;;;;;1.70;1.60;;;5.10;99.90;;;;;;4981138;28;20046;-92
2024/01/16 12:49:03;;;;;;;1.70;1.60;;;5.20;99.90;;;;;;4996791;28;20050;-90
2024/01/16 12:51:29;;;;;;;1.70;1.60;;;5.30;99.90;;;;;;4999761;28;20037;-92
2024/01/16 12:54:10;;;;;;;1.70;1.60;;;5.30;99.90;;;;;;4981445;28;20064;-92
2024/01/16 12:56:36;;;;;;;1.63;1.52;;;5.50;99.90;;;;;;4981429;28;20050;-91
2024/01/16 12:59:12;;;;;;;1.70;1.60;;;5.40;99.90;;;;;;4979980;28;20048;-90
2024/01/16 13:01:43;;;;;;;1.80;1.70;;;5.30;99.90;;;;;;4996841;28;20100;-92
2024/01/16 13:04:10;;;;;;;1.65;1.55;;;5.30;99.90;;;;;;4979427;28;20045;-90
2024/01/16 13:06:37;;;;;;;1.70;1.60;;;5.40;99.90;;;;;;4979979;28;20045;-92
2024/01/16 13:09:15;;;;;;;1.70;1.60;;;5.40;99.90;;;;;;4981301;28;20050;-92
2024/01/16 13:11:55;;;;;;;1.60;1.50;;;5.40;99.90;;;;;;4995933;28;20056;-92
2024/01/16 13:14:22;;;;;;;1.80;1.70;;;5.40;99.90;;;;;;4978060;28;20488;-92
2024/01/16 13:16:52;;;;;;;1.70;1.60;;;5.40;99.90;;;;;;4997376;28;20096;-91
2024/01/16 13:19:21;;;;;;;1.70;1.60;;;5.30;99.90;;;;;;4981153;28;20077;-92
2024/01/16 13:21:50;;;;;;;1.80;1.70;;;5.20;99.90;;;;;;4977945;28;20065;-92
2024/01/16 13:24:22;;;;;;;1.70;1.60;;;5.30;99.90;;;;;;4979438;28;20059;-92
2024/01/16 13:26:48;;;;;;;1.70;1.60;;;5.20;99.90;;;;;;4978812;28;20034;-93
2024/01/16 13:29:15;;;;;;;1.60;1.50;;;5.20;99.90;;;;;;4978163;28;20037;-93
2024/01/16 13:31:41;;;;;;;1.60;1.50;;;5.10;99.90;;;;;;4979851;28;20045;-92
2024/01/16 13:34:07;;;;;;;1.70;1.60;;;5.00;99.90;;;;;;4980404;28;20724;-91
2024/01/16 13:36:32;;;;;;;1.60;1.50;;;5.10;99.90;;;;;;4980741;28;20046;-92
2024/01/16 13:38:58;;;;;;;1.70;1.60;;;5.10;99.90;;;;;;4996352;28;20542;-91
2024/01/16 13:41:24;;;;;;;1.60;1.50;;;5.20;99.90;;;;;;4979846;28;20884;-90
2024/01/16 13:43:50;;;;;;;1.80;1.70;;;5.30;99.90;;;;;;4980650;28;20045;-94
2024/01/16 13:46:17;;;;;;;1.67;1.58;;;5.20;99.90;;;;;;4979749;28;20123;-92
2024/01/16 13:48:44;;;;;;;1.70;1.60;;;5.30;99.90;;;;;;4979828;28;20113;-92
2024/01/16 13:51:10;;;;;;;1.70;1.60;;;5.30;99.90;;;;;;4977550;28;20050;-90
2024/01/16 13:53:36;;;;;;;1.60;1.50;;;5.30;99.90;;;;;;4995881;28;20082;-91
2024/01/16 13:56:02;;;;;;;1.60;1.50;;;5.40;99.90;;;;;;4980093;28;20073;-92
2024/01/16 13:58:27;;;;;;;1.80;1.70;;;5.60;99.90;;;;;;4978438;28;20042;-91
2024/01/16 14:00:53;;;;;;;1.70;1.60;;;5.70;99.90;;;;;;4978875;28;20053;-91
2024/01/16 14:03:19;;;;;;;1.80;1.70;;;5.70;99.90;;;;;;4976529;28;20056;-92
2024/01/16 14:05:46;;;;;;;1.70;1.60;;;5.70;1.00;;;;;;4993165;28;20046;-92
2024/01/16 14:08:12;;;;;;;1.83;1.73;;;5.80;1.00;;;;;;4975219;28;20045;-93
2024/01/16 14:10:41;;;;;;;1.83;1.73;;;5.90;1.00;;;;;;4978121;28;20050;-93
2024/01/16 14:13:07;;;;;;;1.83;1.73;;;5.70;99.90;;;;;;4980290;28;20065;-90
2024/01/16 14:15:33;;;;;;;1.90;1.80;;;5.60;99.90;;;;;;4978314;28;20056;-93
2024/01/16 14:17:59;;;;;;;1.80;1.70;;;5.70;99.90;;;;;;4979265;28;20453;-92
2024/01/16 14:20:28;;;;;;;1.83;1.73;;;5.70;99.90;;;;;;4992742;28;20041;-89
2024/01/16 14:22:54;;;;;;;1.83;1.73;;;5.70;99.90;;;;;;4976932;28;20088;-91
2024/01/16 14:25:21;;;;;;;1.80;1.70;;;5.50;99.90;;;;;;4978383;28;20097;-91